sensor_id;sensor_type;location;lat;lon;timestamp;pressure;altitude;pressure_sealevel;temperature;humidity
36726;BME280;44936;52.086;5.150;2023-01-26T00:01:35;103029.31;;;1.14;100.00
36726;BME280;44936;52.086;5.150;2023-01-26T00:04:00;103038.03;;;1.27;100.00
36726;BME280;44936;52.086;5.150;2023-01-26T00:06:26;103056.03;;;1.37;100.00
36726;BME280;44936;52.086;5.150;2023-01-26T00:08:53;102985.38;;;1.03;100.00
36726;BME280;44936;52.086;5.150;2023-01-26T00:11:21;103010.44;;;1.04;100.00
36726;BME280;44936;52.086;5.150;2023-01-26T00:13:58;103041.72;;;1.19;100.00
36726;BME280;44936;52.086;5.150;2023-01-26T00:16:25;102977.34;;;0.88;100.00
36726;BME280;44936;52.086;5.150;2023-01-26T00:18:51;103044.22;;;1.29;100.00
36726;BME280;44936;52.086;5.150;2023-01-26T00:21:19;102992.59;;;1.07;100.00
36726;BME280;44936;52.086;5.150;2023-01-26T00:23:46;103041.31;;;1.36;100.00
36726;BME280;44936;52.086;5.150;2023-01-26T00:26:14;102987.03;;;0.91;100.00
36726;BME280;44936;52.086;5.150;2023-01-26T00:28:40;102997.75;;;1.07;100.00
36726;BME280;44936;52.086;5.150;2023-01-26T00:31:16;103031.34;;;1.07;100.00
36726;BME280;44936;52.086;5.150;2023-01-26T00:33:42;103049.06;;;1.24;100.00
36726;BME280;44936;52.086;5.150;2023-01-26T00:36:08;103061.47;;;1.06;100.00
36726;BME280;44936;52.086;5.150;2023-01-26T00:38:34;103018.25;;;0.94;100.00
36726;BME280;44936;52.086;5.150;2023-01-26T00:40:59;103022.91;;;0.98;100.00
36726;BME280;44936;52.086;5.150;2023-01-26T00:43:25;103002.34;;;0.99;100.00
36726;BME280;44936;52.086;5.150;2023-01-26T00:45:59;103040.66;;;1.05;100.00
36726;BME280;44936;52.086;5.150;2023-01-26T00:48:27;102980.97;;;0.56;100.00
36726;BME280;44936;52.086;5.150;2023-01-26T00:50:53;103043.72;;;1.11;100.00
36726;BME280;44936;52.086;5.150;2023-01-26T00:53:18;103042.88;;;0.89;100.00
36726;BME280;44936;52.086;5.150;2023-01-26T00:55:43;103031.22;;;1.05;100.00
36726;BME280;44936;52.086;5.150;2023-01-26T00:58:11;103022.63;;;1.17;100.00
36726;BME280;44936;52.086;5.150;2023-01-26T01:00:38;103011.00;;;1.11;100.00
36726;BME280;44936;52.086;5.150;2023-01-26T01:03:04;102926.56;;;0.77;100.00
36726;BME280;44936;52.086;5.150;2023-01-26T01:05:31;102926.13;;;0.71;100.00
36726;BME280;44936;52.086;5.150;2023-01-26T01:07:59;102995.41;;;1.10;100.00
36726;BME280;44936;52.086;5.150;2023-01-26T01:10:26;102940.94;;;0.73;100.00
36726;BME280;44936;52.086;5.150;2023-01-26T01:12:52;102949.03;;;0.78;100.00
36726;BME280;44936;52.086;5.150;2023-01-26T01:15:17;102998.00;;;1.22;100.00
36726;BME280;44936;52.086;5.150;2023-01-26T01:17:43;102936.94;;;0.89;100.00
36726;BME280;44936;52.086;5.150;2023-01-26T01:20:09;102925.56;;;0.87;100.00
36726;BME280;44936;52.086;5.150;2023-01-26T01:22:35;102925.81;;;0.90;100.00
36726;BME280;44936;52.086;5.150;2023-01-26T01:25:01;102933.19;;;0.73;100.00
36726;BME280;44936;52.086;5.150;2023-01-26T01:27:27;103022.56;;;1.05;100.00
36726;BME280;44936;52.086;5.150;2023-01-26T01:29:52;103008.53;;;1.01;100.00
36726;BME280;44936;52.086;5.150;2023-01-26T01:32:19;103020.66;;;1.14;100.00
36726;BME280;44936;52.086;5.150;2023-01-26T01:34:48;102944.09;;;0.81;100.00
36726;BME280;44936;52.086;5.150;2023-01-26T01:37:14;102945.81;;;0.92;100.00
36726;BME280;44936;52.086;5.150;2023-01-26T01:39:40;103011.97;;;1.24;100.00
36726;BME280;44936;52.086;5.150;2023-01-26T01:42:05;102963.09;;;0.93;100.00
36726;BME280;44936;52.086;5.150;2023-01-26T01:44:34;102975.59;;;0.99;100.00
36726;BME280;44936;52.086;5.150;2023-01-26T01:47:20;102921.97;;;0.84;100.00
36726;BME280;44936;52.086;5.150;2023-01-26T01:49:54;102953.81;;;1.07;100.00
36726;BME280;44936;52.086;5.150;2023-01-26T01:52:27;102958.84;;;1.05;100.00
36726;BME280;44936;52.086;5.150;2023-01-26T01:55:07;103001.63;;;1.35;100.00
36726;BME280;44936;52.086;5.150;2023-01-26T01:57:44;102998.56;;;1.29;100.00
36726;BME280;44936;52.086;5.150;2023-01-26T02:00:14;102983.28;;;1.32;100.00
36726;BME280;44936;52.086;5.150;2023-01-26T02:02:43;102966.13;;;1.33;100.00
36726;BME280;44936;52.086;5.150;2023-01-26T02:05:32;102953.16;;;1.09;100.00
36726;BME280;44936;52.086;5.150;2023-01-26T02:08:00;102939.38;;;0.87;100.00
36726;BME280;44936;52.086;5.150;2023-01-26T02:10:27;102932.66;;;0.89;100.00
36726;BME280;44936;52.086;5.150;2023-01-26T02:12:54;103006.91;;;1.25;100.00
36726;BME280;44936;52.086;5.150;2023-01-26T02:15:25;103001.63;;;1.35;100.00
36726;BME280;44936;52.086;5.150;2023-01-26T02:17:52;102933.63;;;0.79;100.00
36726;BME280;44936;52.086;5.150;2023-01-26T02:20:51;103018.09;;;1.14;100.00
36726;BME280;44936;52.086;5.150;2023-01-26T02:23:38;102992.34;;;1.04;100.00
36726;BME280;44936;52.086;5.150;2023-01-26T02:26:13;103016.75;;;1.07;100.00
36726;BME280;44936;52.086;5.150;2023-01-26T02:28:40;102993.41;;;0.84;100.00
36726;BME280;44936;52.086;5.150;2023-01-26T02:31:08;103004.16;;;1.12;100.00
36726;BME280;44936;52.086;5.150;2023-01-26T02:33:34;103003.53;;;1.26;100.00
36726;BME280;44936;52.086;5.150;2023-01-26T02:36:00;102998.34;;;1.26;100.00
36726;BME280;44936;52.086;5.150;2023-01-26T02:38:32;102954.84;;;1.09;100.00
36726;BME280;44936;52.086;5.150;2023-01-26T02:41:07;102924.56;;;0.84;100.00
36726;BME280;44936;52.086;5.150;2023-01-26T02:43:34;102988.00;;;1.26;100.00
36726;BME280;44936;52.086;5.150;2023-01-26T02:46:00;103000.09;;;1.04;100.00
36726;BME280;44936;52.086;5.150;2023-01-26T02:48:26;102954.75;;;0.74;100.00
36726;BME280;44936;52.086;5.150;2023-01-26T02:51:11;102946.91;;;0.50;100.00
36726;BME280;44936;52.086;5.150;2023-01-26T02:53:37;102960.03;;;0.75;100.00
36726;BME280;44936;52.086;5.150;2023-01-26T02:56:03;102933.28;;;0.63;100.00
36726;BME280;44936;52.086;5.150;2023-01-26T02:58:28;102989.75;;;1.04;100.00
36726;BME280;44936;52.086;5.150;2023-01-26T03:00:54;102942.53;;;0.95;100.00
36726;BME280;44936;52.086;5.150;2023-01-26T03:03:23;102936.25;;;0.91;100.00
36726;BME280;44936;52.086;5.150;2023-01-26T03:05:50;102913.44;;;0.85;100.00
36726;BME280;44936;52.086;5.150;2023-01-26T03:08:15;102985.75;;;1.31;100.00
36726;BME280;44936;52.086;5.150;2023-01-26T03:10:41;102980.69;;;1.32;100.00
36726;BME280;44936;52.086;5.150;2023-01-26T03:13:07;102914.00;;;0.81;100.00
36726;BME280;44936;52.086;5.150;2023-01-26T03:15:35;102924.97;;;0.79;100.00
36726;BME280;44936;52.086;5.150;2023-01-26T03:18:13;102986.06;;;1.00;100.00
36726;BME280;44936;52.086;5.150;2023-01-26T03:20:59;103016.75;;;1.19;100.00
36726;BME280;44936;52.086;5.150;2023-01-26T03:23:46;103008.91;;;1.29;100.00
36726;BME280;44936;52.086;5.150;2023-01-26T03:26:30;102956.63;;;1.10;100.00
36726;BME280;44936;52.086;5.150;2023-01-26T03:29:16;102926.59;;;0.89;100.00
36726;BME280;44936;52.086;5.150;2023-01-26T03:31:41;102967.22;;;1.25;100.00
36726;BME280;44936;52.086;5.150;2023-01-26T03:34:07;102974.41;;;1.17;100.00
36726;BME280;44936;52.086;5.150;2023-01-26T03:36:32;102997.03;;;1.43;100.00
36726;BME280;44936;52.086;5.150;2023-01-26T03:38:58;102945.41;;;1.21;100.00
36726;BME280;44936;52.086;5.150;2023-01-26T03:41:23;102960.59;;;1.28;100.00
36726;BME280;44936;52.086;5.150;2023-01-26T03:44:07;102980.03;;;1.47;100.00
36726;BME280;44936;52.086;5.150;2023-01-26T03:46:54;102987.69;;;1.57;100.00
36726;BME280;44936;52.086;5.150;2023-01-26T03:49:38;102953.03;;;1.31;100.00
36726;BME280;44936;52.086;5.150;2023-01-26T03:52:30;102987.59;;;1.55;100.00
36726;BME280;44936;52.086;5.150;2023-01-26T03:55:14;102993.66;;;1.56;100.00
36726;BME280;44936;52.086;5.150;2023-01-26T03:58:04;102952.19;;;1.42;100.00
36726;BME280;44936;52.086;5.150;2023-01-26T04:00:31;102910.56;;;1.16;100.00
36726;BME280;44936;52.086;5.150;2023-01-26T04:02:56;102904.72;;;1.19;100.00
36726;BME280;44936;52.086;5.150;2023-01-26T04:05:40;102979.94;;;1.57;100.00
36726;BME280;44936;52.086;5.150;2023-01-26T04:08:24;102970.06;;;1.51;100.00
36726;BME280;44936;52.086;5.150;2023-01-26T04:11:02;102964.88;;;1.51;100.00
36726;BME280;44936;52.086;5.150;2023-01-26T04:13:36;102953.97;;;1.44;100.00
36726;BME280;44936;52.086;5.150;2023-01-26T04:16:20;102991.19;;;1.69;100.00
36726;BME280;44936;52.086;5.150;2023-01-26T04:19:04;102951.59;;;1.35;100.00
36726;BME280;44936;52.086;5.150;2023-01-26T04:21:48;102996.56;;;1.49;100.00
36726;BME280;44936;52.086;5.150;2023-01-26T04:24:13;102959.00;;;1.30;100.00
36726;BME280;44936;52.086;5.150;2023-01-26T04:26:39;102937.31;;;1.28;100.00
36726;BME280;44936;52.086;5.150;2023-01-26T04:29:08;102959.03;;;1.54;100.00
36726;BME280;44936;52.086;5.150;2023-01-26T04:31:34;102926.06;;;1.39;100.00
36726;BME280;44936;52.086;5.150;2023-01-26T04:34:01;102961.94;;;1.70;100.00
36726;BME280;44936;52.086;5.150;2023-01-26T04:36:29;102900.34;;;1.29;100.00
36726;BME280;44936;52.086;5.150;2023-01-26T04:38:55;102983.06;;;1.76;100.00
36726;BME280;44936;52.086;5.150;2023-01-26T04:41:24;102958.91;;;1.64;100.00
36726;BME280;44936;52.086;5.150;2023-01-26T04:43:49;102909.22;;;1.33;100.00
36726;BME280;44936;52.086;5.150;2023-01-26T04:46:15;102943.41;;;1.52;100.00
36726;BME280;44936;52.086;5.150;2023-01-26T04:48:41;102915.84;;;1.41;100.00
36726;BME280;44936;52.086;5.150;2023-01-26T04:51:11;102921.03;;;1.53;100.00
36726;BME280;44936;52.086;5.150;2023-01-26T04:53:41;102903.25;;;1.46;100.00
36726;BME280;44936;52.086;5.150;2023-01-26T04:56:16;102925.97;;;1.61;100.00
36726;BME280;44936;52.086;5.150;2023-01-26T04:58:46;102970.03;;;1.86;100.00
36726;BME280;44936;52.086;5.150;2023-01-26T05:01:11;102915.84;;;1.53;100.00
36726;BME280;44936;52.086;5.150;2023-01-26T05:03:37;102984.09;;;1.66;100.00
36726;BME280;44936;52.086;5.150;2023-01-26T05:06:03;102912.69;;;1.45;100.00
36726;BME280;44936;52.086;5.150;2023-01-26T05:08:30;102905.72;;;1.56;100.00
36726;BME280;44936;52.086;5.150;2023-01-26T05:10:56;102892.69;;;1.54;100.00
36726;BME280;44936;52.086;5.150;2023-01-26T05:13:21;102917.06;;;1.69;100.00
36726;BME280;44936;52.086;5.150;2023-01-26T05:15:47;102956.47;;;2.02;100.00
36726;BME280;44936;52.086;5.150;2023-01-26T05:18:12;102876.38;;;1.55;100.00
36726;BME280;44936;52.086;5.150;2023-01-26T05:20:38;102951.19;;;2.01;100.00
36726;BME280;44936;52.086;5.150;2023-01-26T05:23:04;102920.53;;;1.82;100.00
36726;BME280;44936;52.086;5.150;2023-01-26T05:25:29;102952.19;;;2.03;100.00
36726;BME280;44936;52.086;5.150;2023-01-26T05:27:55;102912.69;;;1.68;100.00
36726;BME280;44936;52.086;5.150;2023-01-26T05:30:25;102917.63;;;1.77;100.00
36726;BME280;44936;52.086;5.150;2023-01-26T05:32:50;102880.06;;;1.70;100.00
36726;BME280;44936;52.086;5.150;2023-01-26T05:35:16;102867.38;;;1.62;100.00
36726;BME280;44936;52.086;5.150;2023-01-26T05:37:41;102893.97;;;1.84;100.00
36726;BME280;44936;52.086;5.150;2023-01-26T05:40:09;102957.38;;;2.14;100.00
36726;BME280;44936;52.086;5.150;2023-01-26T05:42:34;102932.66;;;1.94;100.00
36726;BME280;44936;52.086;5.150;2023-01-26T05:45:03;102958.38;;;2.16;100.00
36726;BME280;44936;52.086;5.150;2023-01-26T05:47:29;102887.69;;;1.81;100.00
36726;BME280;44936;52.086;5.150;2023-01-26T05:49:55;102888.78;;;1.84;100.00
36726;BME280;44936;52.086;5.150;2023-01-26T05:52:21;102937.00;;;2.07;100.00
36726;BME280;44936;52.086;5.150;2023-01-26T05:54:47;102897.94;;;1.79;100.00
36726;BME280;44936;52.086;5.150;2023-01-26T05:57:13;102937.00;;;2.07;100.00
36726;BME280;44936;52.086;5.150;2023-01-26T05:59:41;102973.00;;;2.16;100.00
36726;BME280;44936;52.086;5.150;2023-01-26T06:02:09;102908.03;;;1.88;100.00
36726;BME280;44936;52.086;5.150;2023-01-26T06:04:35;102936.91;;;2.06;100.00
36726;BME280;44936;52.086;5.150;2023-01-26T06:07:09;102898.44;;;1.98;100.00
36726;BME280;44936;52.086;5.150;2023-01-26T06:09:43;102915.94;;;2.14;100.00
36726;BME280;44936;52.086;5.150;2023-01-26T06:12:14;102880.31;;;1.98;100.00
36726;BME280;44936;52.086;5.150;2023-01-26T06:14:43;102921.66;;;2.22;100.00
36726;BME280;44936;52.086;5.150;2023-01-26T06:17:15;102886.97;;;1.95;100.00
36726;BME280;44936;52.086;5.150;2023-01-26T06:19:40;102887.41;;;2.01;100.00
36726;BME280;44936;52.086;5.150;2023-01-26T06:22:07;102915.06;;;2.14;100.00
36726;BME280;44936;52.086;5.150;2023-01-26T06:24:33;102957.41;;;2.39;100.00
36726;BME280;44936;52.086;5.150;2023-01-26T06:27:00;102958.41;;;2.41;100.00
36726;BME280;44936;52.086;5.150;2023-01-26T06:29:26;102898.53;;;2.00;100.00
36726;BME280;44936;52.086;5.150;2023-01-26T06:31:54;102970.38;;;2.39;100.00
36726;BME280;44936;52.086;5.150;2023-01-26T06:34:20;102932.03;;;2.22;100.00
36726;BME280;44936;52.086;5.150;2023-01-26T06:36:46;102903.66;;;2.12;100.00
36726;BME280;44936;52.086;5.150;2023-01-26T06:39:12;102900.88;;;2.09;100.00
36726;BME280;44936;52.086;5.150;2023-01-26T06:41:39;102953.22;;;2.41;100.00
36726;BME280;44936;52.086;5.150;2023-01-26T06:44:07;102916.63;;;2.12;100.00
36726;BME280;44936;52.086;5.150;2023-01-26T06:46:32;102924.81;;;2.18;100.00
36726;BME280;44936;52.086;5.150;2023-01-26T06:49:00;102921.59;;;2.09;100.00
36726;BME280;44936;52.086;5.150;2023-01-26T06:53:56;102931.72;;;2.06;100.00
36726;BME280;44936;52.086;5.150;2023-01-26T06:56:23;102989.25;;;2.38;100.00
36726;BME280;44936;52.086;5.150;2023-01-26T06:58:49;102954.00;;;2.15;100.00
36726;BME280;44936;52.086;5.150;2023-01-26T07:01:20;102994.41;;;2.50;100.00
36726;BME280;44936;52.086;5.150;2023-01-26T07:03:50;103015.09;;;2.62;100.00
36726;BME280;44936;52.086;5.150;2023-01-26T07:06:16;103015.44;;;2.66;100.00
36726;BME280;44936;52.086;5.150;2023-01-26T07:08:42;102976.81;;;2.58;100.00
36726;BME280;44936;52.086;5.150;2023-01-26T07:11:09;102936.56;;;2.38;100.00
36726;BME280;44936;52.086;5.150;2023-01-26T07:13:34;102949.13;;;2.57;100.00
36726;BME280;44936;52.086;5.150;2023-01-26T07:16:09;102957.97;;;2.35;100.00
36726;BME280;44936;52.086;5.150;2023-01-26T07:18:35;102990.38;;;2.42;100.00
36726;BME280;44936;52.086;5.150;2023-01-26T07:21:03;102990.13;;;2.50;100.00
36726;BME280;44936;52.086;5.150;2023-01-26T07:23:29;102983.16;;;2.49;100.00
36726;BME280;44936;52.086;5.150;2023-01-26T07:25:54;102949.22;;;2.33;100.00
36726;BME280;44936;52.086;5.150;2023-01-26T07:28:20;102991.84;;;2.38;100.00
36726;BME280;44936;52.086;5.150;2023-01-26T07:30:45;102963.41;;;2.26;100.00
36726;BME280;44936;52.086;5.150;2023-01-26T07:33:11;102971.50;;;2.31;100.00
36726;BME280;44936;52.086;5.150;2023-01-26T07:35:36;102996.50;;;2.31;100.00
36726;BME280;44936;52.086;5.150;2023-01-26T07:38:05;103048.06;;;2.64;100.00
36726;BME280;44936;52.086;5.150;2023-01-26T07:40:30;103024.38;;;2.46;100.00
36726;BME280;44936;52.086;5.150;2023-01-26T07:42:56;103017.72;;;2.50;100.00
36726;BME280;44936;52.086;5.150;2023-01-26T07:45:23;103030.34;;;2.45;100.00
36726;BME280;44936;52.086;5.150;2023-01-26T07:47:48;102970.63;;;2.19;100.00
36726;BME280;44936;52.086;5.150;2023-01-26T07:50:17;103032.75;;;2.67;100.00
36726;BME280;44936;52.086;5.150;2023-01-26T07:52:45;102998.09;;;2.53;100.00
36726;BME280;44936;52.086;5.150;2023-01-26T07:55:13;103017.53;;;2.72;100.00
36726;BME280;44936;52.086;5.150;2023-01-26T07:57:49;102992.47;;;2.59;100.00
36726;BME280;44936;52.086;5.150;2023-01-26T08:00:43;103037.69;;;2.76;100.00
36726;BME280;44936;52.086;5.150;2023-01-26T08:03:14;102976.31;;;2.38;100.00
36726;BME280;44936;52.086;5.150;2023-01-26T08:05:40;103036.00;;;2.76;100.00
36726;BME280;44936;52.086;5.150;2023-01-26T08:08:10;103005.06;;;2.66;100.00
36726;BME280;44936;52.086;5.150;2023-01-26T08:10:35;103032.00;;;2.81;100.00
36726;BME280;44936;52.086;5.150;2023-01-26T08:13:01;102990.34;;;2.53;100.00
36726;BME280;44936;52.086;5.150;2023-01-26T08:15:27;102978.03;;;2.63;100.00
36726;BME280;44936;52.086;5.150;2023-01-26T08:17:53;103011.41;;;2.83;100.00
36726;BME280;44936;52.086;5.150;2023-01-26T08:20:19;102952.47;;;2.55;100.00
36726;BME280;44936;52.086;5.150;2023-01-26T08:22:47;102948.00;;;2.53;100.00
36726;BME280;44936;52.086;5.150;2023-01-26T08:25:13;103010.22;;;2.91;100.00
36726;BME280;44936;52.086;5.150;2023-01-26T08:27:38;102942.44;;;2.60;100.00
36726;BME280;44936;52.086;5.150;2023-01-26T08:30:07;102984.91;;;2.87;100.00
36726;BME280;44936;52.086;5.150;2023-01-26T08:32:33;102963.69;;;2.68;100.00
36726;BME280;44936;52.086;5.150;2023-01-26T08:35:01;102957.03;;;2.71;100.00
36726;BME280;44936;52.086;5.150;2023-01-26T08:37:28;103018.94;;;3.05;100.00
36726;BME280;44936;52.086;5.150;2023-01-26T08:39:54;102953.53;;;2.71;100.00
36726;BME280;44936;52.086;5.150;2023-01-26T08:42:22;103024.56;;;3.11;100.00
36726;BME280;44936;52.086;5.150;2023-01-26T08:44:49;102998.69;;;2.99;100.00
36726;BME280;44936;52.086;5.150;2023-01-26T08:47:15;102977.66;;;2.95;100.00
36726;BME280;44936;52.086;5.150;2023-01-26T08:49:43;102956.19;;;2.84;100.00
36726;BME280;44936;52.086;5.150;2023-01-26T08:52:09;102960.97;;;2.91;100.00
36726;BME280;44936;52.086;5.150;2023-01-26T08:54:34;102950.47;;;3.01;100.00
36726;BME280;44936;52.086;5.150;2023-01-26T08:57:02;102942.69;;;3.15;100.00
36726;BME280;44936;52.086;5.150;2023-01-26T08:59:27;102930.94;;;3.20;100.00
36726;BME280;44936;52.086;5.150;2023-01-26T09:01:53;102952.09;;;3.39;100.00
36726;BME280;44936;52.086;5.150;2023-01-26T09:04:19;102931.44;;;3.27;100.00
36726;BME280;44936;52.086;5.150;2023-01-26T09:06:45;102977.63;;;3.59;100.00
36726;BME280;44936;52.086;5.150;2023-01-26T09:09:10;102936.81;;;3.44;100.00
36726;BME280;44936;52.086;5.150;2023-01-26T09:11:39;102922.38;;;3.47;100.00
36726;BME280;44936;52.086;5.150;2023-01-26T09:14:04;102938.00;;;3.62;100.00
36726;BME280;44936;52.086;5.150;2023-01-26T09:16:30;102937.13;;;3.61;100.00
36726;BME280;44936;52.086;5.150;2023-01-26T09:18:55;102964.47;;;3.83;100.00
36726;BME280;44936;52.086;5.150;2023-01-26T09:21:24;102951.28;;;3.93;100.00
36726;BME280;44936;52.086;5.150;2023-01-26T09:24:04;102961.66;;;3.93;100.00
36726;BME280;44936;52.086;5.150;2023-01-26T09:26:35;102941.06;;;3.96;100.00
36726;BME280;44936;52.086;5.150;2023-01-26T09:29:01;102979.97;;;4.22;100.00
36726;BME280;44936;52.086;5.150;2023-01-26T09:31:26;102968.00;;;4.24;100.00
36726;BME280;44936;52.086;5.150;2023-01-26T09:33:52;103003.81;;;4.43;100.00
36726;BME280;44936;52.086;5.150;2023-01-26T09:36:22;103001.53;;;4.35;100.00
36726;BME280;44936;52.086;5.150;2023-01-26T09:38:47;103035.75;;;4.55;100.00
36726;BME280;44936;52.086;5.150;2023-01-26T09:41:49;103087.34;;;4.91;100.00
36726;BME280;44936;52.086;5.150;2023-01-26T09:44:23;103060.38;;;4.75;100.00
36726;BME280;44936;52.086;5.150;2023-01-26T09:47:15;103133.56;;;5.09;100.00
36726;BME280;44936;52.086;5.150;2023-01-26T09:49:48;103147.63;;;5.26;100.00
36726;BME280;44936;52.086;5.150;2023-01-26T09:52:24;103105.06;;;5.11;100.00
36726;BME280;44936;52.086;5.150;2023-01-26T09:54:57;103088.28;;;5.06;100.00
36726;BME280;44936;52.086;5.150;2023-01-26T09:57:35;103103.56;;;5.29;100.00
36726;BME280;44936;52.086;5.150;2023-01-26T10:00:07;103075.84;;;5.15;100.00
36726;BME280;44936;52.086;5.150;2023-01-26T10:03:46;103081.84;;;5.14;100.00
36726;BME280;44936;52.086;5.150;2023-01-26T10:05:48;103085.94;;;5.10;100.00
36726;BME280;44936;52.086;5.150;2023-01-26T10:08:18;103089.66;;;5.14;100.00
36726;BME280;44936;52.086;5.150;2023-01-26T10:10:59;103152.13;;;5.57;100.00
36726;BME280;44936;52.086;5.150;2023-01-26T10:13:36;103157.16;;;5.68;100.00
36726;BME280;44936;52.086;5.150;2023-01-26T10:16:05;103129.28;;;5.53;100.00
36726;BME280;44936;52.086;5.150;2023-01-26T10:18:55;103090.34;;;5.39;100.00
36726;BME280;44936;52.086;5.150;2023-01-26T10:21:37;103093.00;;;5.56;100.00
36726;BME280;44936;52.086;5.150;2023-01-26T10:24:04;103115.56;;;5.70;100.00
36726;BME280;44936;52.086;5.150;2023-01-26T10:26:34;103075.97;;;5.46;100.00
36726;BME280;44936;52.086;5.150;2023-01-26T10:29:00;103125.06;;;5.55;100.00
36726;BME280;44936;52.086;5.150;2023-01-26T10:31:28;103112.22;;;5.43;100.00
36726;BME280;44936;52.086;5.150;2023-01-26T10:34:15;103094.06;;;5.15;100.00
36726;BME280;44936;52.086;5.150;2023-01-26T10:36:44;103078.81;;;5.21;100.00
36726;BME280;44936;52.086;5.150;2023-01-26T10:39:12;103124.38;;;5.29;100.00
36726;BME280;44936;52.086;5.150;2023-01-26T10:41:38;103074.47;;;5.07;100.00
36726;BME280;44936;52.086;5.150;2023-01-26T10:44:22;103150.38;;;5.43;100.00
36726;BME280;44936;52.086;5.150;2023-01-26T10:47:03;103065.13;;;4.96;100.00
36726;BME280;44936;52.086;5.150;2023-01-26T10:49:32;103116.69;;;5.31;100.00
36726;BME280;44936;52.086;5.150;2023-01-26T10:52:20;103141.66;;;5.42;100.00
36726;BME280;44936;52.086;5.150;2023-01-26T10:55:09;103090.72;;;5.18;100.00
36726;BME280;44936;52.086;5.150;2023-01-26T10:57:38;103085.19;;;5.26;100.00
36726;BME280;44936;52.086;5.150;2023-01-26T11:02:51;103134.06;;;5.60;100.00
36726;BME280;44936;52.086;5.150;2023-01-26T11:05:22;103136.16;;;5.65;100.00
36726;BME280;44936;52.086;5.150;2023-01-26T11:07:50;103104.69;;;5.48;100.00
36726;BME280;44936;52.086;5.150;2023-01-26T11:10:23;103108.09;;;5.47;100.00
36726;BME280;44936;52.086;5.150;2023-01-26T11:13:05;103144.28;;;5.72;100.00
36726;BME280;44936;52.086;5.150;2023-01-26T11:15:40;103098.22;;;5.56;100.00
36726;BME280;44936;52.086;5.150;2023-01-26T11:20:56;103138.22;;;6.01;100.00
36726;BME280;44936;52.086;5.150;2023-01-26T11:26:22;103148.75;;;6.02;100.00
36726;BME280;44936;52.086;5.150;2023-01-26T11:34:45;103146.78;;;6.28;100.00
36726;BME280;44936;52.086;5.150;2023-01-26T11:37:44;103105.91;;;6.12;100.00
36726;BME280;44936;52.086;5.150;2023-01-26T11:40:27;103136.59;;;6.32;100.00
36726;BME280;44936;52.086;5.150;2023-01-26T11:43:48;103096.53;;;6.15;100.00
36726;BME280;44936;52.086;5.150;2023-01-26T11:57:56;103080.91;;;6.01;100.00
36726;BME280;44936;52.086;5.150;2023-01-26T12:01:02;103077.56;;;6.18;100.00
36726;BME280;44936;52.086;5.150;2023-01-26T12:03:45;103124.03;;;6.56;100.00
36726;BME280;44936;52.086;5.150;2023-01-26T12:06:19;103108.16;;;6.68;100.00
36726;BME280;44936;52.086;5.150;2023-01-26T12:08:53;103038.78;;;6.39;100.00
36726;BME280;44936;52.086;5.150;2023-01-26T12:14:26;103038.94;;;6.42;100.00
36726;BME280;44936;52.086;5.150;2023-01-26T12:17:17;103095.72;;;6.78;100.00
36726;BME280;44936;52.086;5.150;2023-01-26T12:19:56;103061.78;;;6.62;100.00
36726;BME280;44936;52.086;5.150;2023-01-26T12:22:32;103059.84;;;6.58;100.00
36726;BME280;44936;52.086;5.150;2023-01-26T12:30:36;103088.19;;;6.68;100.00
36726;BME280;44936;52.086;5.150;2023-01-26T12:33:04;103020.13;;;6.31;100.00
36726;BME280;44936;52.086;5.150;2023-01-26T12:35:41;103072.66;;;6.86;100.00
36726;BME280;44936;52.086;5.150;2023-01-26T12:38:14;103071.00;;;6.88;100.00
36726;BME280;44936;52.086;5.150;2023-01-26T12:40:55;103068.34;;;6.87;100.00
36726;BME280;44936;52.086;5.150;2023-01-26T12:46:09;103055.28;;;7.03;100.00
36726;BME280;44936;52.086;5.150;2023-01-26T12:48:54;103052.69;;;7.03;100.00
36726;BME280;44936;52.086;5.150;2023-01-26T12:51:25;103054.66;;;7.07;100.00
36726;BME280;44936;52.086;5.150;2023-01-26T12:53:56;103006.81;;;6.90;100.00
36726;BME280;44936;52.086;5.150;2023-01-26T12:56:38;103013.97;;;6.94;100.00
36726;BME280;44936;52.086;5.150;2023-01-26T12:59:19;102979.41;;;6.82;100.00
36726;BME280;44936;52.086;5.150;2023-01-26T13:01:46;102968.09;;;6.65;100.00
36726;BME280;44936;52.086;5.150;2023-01-26T13:04:13;103006.06;;;6.93;100.00
36726;BME280;44936;52.086;5.150;2023-01-26T13:06:42;102961.31;;;6.52;100.00
36726;BME280;44936;52.086;5.150;2023-01-26T13:09:23;102953.00;;;6.43;100.00
36726;BME280;44936;52.086;5.150;2023-01-26T13:11:58;103010.47;;;6.77;100.00
36726;BME280;44936;52.086;5.150;2023-01-26T13:19:54;102941.41;;;6.71;100.00
36726;BME280;44936;52.086;5.150;2023-01-26T13:24:57;103016.97;;;7.02;100.00
36726;BME280;44936;52.086;5.150;2023-01-26T13:27:33;103024.72;;;7.00;100.00
36726;BME280;44936;52.086;5.150;2023-01-26T13:29:59;103022.75;;;6.96;100.00
36726;BME280;44936;52.086;5.150;2023-01-26T13:34:53;103032.22;;;6.94;100.00
36726;BME280;44936;52.086;5.150;2023-01-26T13:40:25;102950.06;;;6.53;100.00
36726;BME280;44936;52.086;5.150;2023-01-26T13:42:57;102948.94;;;6.48;100.00
36726;BME280;44936;52.086;5.150;2023-01-26T13:48:31;102962.22;;;6.53;100.00
36726;BME280;44936;52.086;5.150;2023-01-26T13:50:59;102975.34;;;6.55;100.00
36726;BME280;44936;52.086;5.150;2023-01-26T13:53:38;102966.88;;;6.59;100.00
36726;BME280;44936;52.086;5.150;2023-01-26T13:56:32;103035.97;;;6.83;100.00
36726;BME280;44936;52.086;5.150;2023-01-26T14:01:38;102971.84;;;6.38;100.00
36726;BME280;44936;52.086;5.150;2023-01-26T14:04:10;102982.25;;;6.38;100.00
36726;BME280;44936;52.086;5.150;2023-01-26T14:06:37;102999.91;;;6.43;100.00
36726;BME280;44936;52.086;5.150;2023-01-26T14:09:03;103044.84;;;6.70;100.00